Time;durP1;ratioP1;P1;durP2;ratioP2;P2;SDS_P1;SDS_P2;PMS_P1;PMS_P2;Temp;Humidity;BMP_temperature;BMP_pressure;BME280_temperature;BME280_humidity;BME280_pressure;Samples;Min_cycle;Max_cycle;Signal;HPM_P1;HPM_P2
2024/04/11 00:03:06;;;;;;;;;;;20.50;40.60;;;;;;8963677;26;19936;-59
2024/04/11 00:07:07;;;;;;;;;;;20.40;41.30;;;;;;8932883;26;20280;-58
2024/04/11 00:11:08;;;;;;;;;;;20.30;42.40;;;;;;8964145;26;19933;-59
2024/04/11 00:15:08;;;;;;;;;;;20.20;42.30;;;;;;8963656;26;19936;-59
2024/04/11 00:19:09;;;;;;;;;;;20.30;41.70;;;;;;8963831;26;19929;-59
2024/04/11 00:23:10;;;;;;;;;;;20.30;41.30;;;;;;8963453;26;19940;-59
2024/04/11 00:27:10;;;;;;;;;;;20.40;41.20;;;;;;8963054;26;19953;-59
2024/04/11 00:31:11;;;;;;;;;;;20.40;41.00;;;;;;8963302;26;20335;-61
2024/04/11 00:35:11;;;;;;;;;;;20.40;40.80;;;;;;8963633;26;20031;-60
2024/04/11 00:39:18;;;;;;;;;;;20.40;40.70;;;;;;8964273;26;20290;-59
2024/04/11 00:43:18;;;;;;;;;;;20.40;40.60;;;;;;8962957;26;19929;-60
2024/04/11 00:47:20;;;;;;;;;;;20.40;40.60;;;;;;8962957;26;20380;-60
2024/04/11 00:51:21;;;;;;;;;;;20.40;40.50;;;;;;8962047;26;20505;-59
2024/04/11 00:55:22;;;;;;;;;;;20.30;41.40;;;;;;8962919;26;20272;-59
2024/04/11 00:59:23;;;;;;;;;;;20.20;42.40;;;;;;8962893;26;20661;-59
2024/04/11 01:03:23;;;;;;;;;;;20.10;42.10;;;;;;8963005;26;19929;-59
2024/04/11 01:07:24;;;;;;;;;;;20.20;41.60;;;;;;8931298;26;20274;-60
2024/04/11 01:11:25;;;;;;;;;;;20.30;41.20;;;;;;8962211;26;19976;-59
2024/04/11 01:15:27;;;;;;;;;;;20.30;41.00;;;;;;8962276;26;20359;-58
2024/04/11 01:19:27;;;;;;;;;;;20.40;40.90;;;;;;8962589;26;19974;-59
2024/04/11 01:23:28;;;;;;;;;;;20.40;40.70;;;;;;8961965;26;19933;-59
2024/04/11 01:27:29;;;;;;;;;;;20.40;40.60;;;;;;8962619;26;19933;-58
2024/04/11 01:31:29;;;;;;;;;;;20.40;40.50;;;;;;8961598;26;20278;-58
2024/04/11 01:35:31;;;;;;;;;;;20.40;40.50;;;;;;8961841;26;19929;-59
2024/04/11 01:39:31;;;;;;;;;;;20.40;40.40;;;;;;8930973;26;19929;-58
2024/04/11 01:43:32;;;;;;;;;;;20.30;41.40;;;;;;8961662;26;19935;-59
2024/04/11 01:47:37;;;;;;;;;;;20.10;42.30;;;;;;8961408;26;19940;-58
2024/04/11 01:51:37;;;;;;;;;;;20.10;42.00;;;;;;8961757;26;20446;-59
2024/04/11 01:55:38;;;;;;;;;;;20.20;41.60;;;;;;8961284;26;20439;-59
2024/04/11 01:59:41;;;;;;;;;;;20.30;41.20;;;;;;8961620;26;19939;-59
2024/04/11 02:03:43;;;;;;;;;;;20.30;41.00;;;;;;8960225;26;19933;-58
2024/04/11 02:07:44;;;;;;;;;;;20.40;40.80;;;;;;8929778;26;19936;-58
2024/04/11 02:11:47;;;;;;;;;;;20.40;40.70;;;;;;8960867;26;19929;-59
2024/04/11 02:15:48;;;;;;;;;;;20.40;40.50;;;;;;8960634;26;19933;-59
2024/04/11 02:19:48;;;;;;;;;;;20.40;40.40;;;;;;8961052;26;19941;-58
2024/04/11 02:23:49;;;;;;;;;;;20.40;40.30;;;;;;8961089;26;20266;-58
2024/04/11 02:27:53;;;;;;;;;;;20.40;40.30;;;;;;8960296;26;20363;-59
2024/04/11 02:31:54;;;;;;;;;;;20.30;41.50;;;;;;8960230;26;19937;-58
2024/04/11 02:35:55;;;;;;;;;;;20.10;42.40;;;;;;8960511;26;19929;-58
2024/04/11 02:39:55;;;;;;;;;;;20.10;41.90;;;;;;8960454;26;19941;-59
2024/04/11 02:43:56;;;;;;;;;;;20.20;41.40;;;;;;8960091;26;19936;-59
2024/04/11 02:47:57;;;;;;;;;;;20.30;41.00;;;;;;8959608;26;19937;-58
2024/04/11 02:51:59;;;;;;;;;;;20.30;40.90;;;;;;8959675;26;19929;-58
2024/04/11 02:56:00;;;;;;;;;;;20.30;40.60;;;;;;8959785;26;19929;-58
2024/04/11 03:00:01;;;;;;;;;;;20.40;40.60;;;;;;8928101;26;19928;-58
2024/04/11 03:04:02;;;;;;;;;;;20.30;40.40;;;;;;8960047;26;19957;-58
2024/04/11 03:08:06;;;;;;;;;;;20.30;40.30;;;;;;8927946;26;20001;-58
2024/04/11 03:12:07;;;;;;;;;;;20.30;40.30;;;;;;8958666;26;19994;-58
2024/04/11 03:16:11;;;;;;;;;;;20.40;40.30;;;;;;8964506;26;19957;-58
2024/04/11 03:20:16;;;;;;;;;;;20.20;41.60;;;;;;8964830;26;19929;-58
2024/04/11 03:24:17;;;;;;;;;;;20.00;42.20;;;;;;8965176;26;19929;-59
2024/04/11 03:28:21;;;;;;;;;;;20.10;41.60;;;;;;8964797;26;20374;-59
2024/04/11 03:32:24;;;;;;;;;;;20.20;41.20;;;;;;8964464;26;19929;-58
2024/04/11 03:36:25;;;;;;;;;;;20.20;40.90;;;;;;8964576;26;19937;-57
2024/04/11 03:40:25;;;;;;;;;;;20.30;40.70;;;;;;8965234;26;20002;-58
2024/04/11 03:44:26;;;;;;;;;;;20.30;40.50;;;;;;8964417;26;19929;-58
2024/04/11 03:48:28;;;;;;;;;;;20.30;40.40;;;;;;8964097;26;20264;-58
2024/04/11 03:52:28;;;;;;;;;;;20.30;40.30;;;;;;8963983;26;20349;-58
2024/04/11 03:56:29;;;;;;;;;;;20.40;40.30;;;;;;8963547;26;19943;-58
2024/04/11 04:00:30;;;;;;;;;;;20.30;40.10;;;;;;8964044;26;19933;-58
2024/04/11 04:04:32;;;;;;;;;;;20.40;40.30;;;;;;8964014;26;19929;-58
2024/04/11 04:08:33;;;;;;;;;;;20.10;41.50;;;;;;8963453;26;19936;-57
2024/04/11 04:12:33;;;;;;;;;;;20.00;42.10;;;;;;8963492;26;19935;-58
2024/04/11 04:16:35;;;;;;;;;;;20.10;41.50;;;;;;8963534;26;20367;-58
2024/04/11 04:20:35;;;;;;;;;;;20.20;41.00;;;;;;8963247;26;20464;-59
2024/04/11 04:24:36;;;;;;;;;;;20.30;40.70;;;;;;8963066;26;20626;-59
2024/04/11 04:28:38;;;;;;;;;;;20.40;40.30;;;;;;8962926;26;19929;-59
2024/04/11 04:32:39;;;;;;;;;;;20.40;40.10;;;;;;8963261;26;20027;-58
2024/04/11 04:36:42;;;;;;;;;;;20.50;40.00;;;;;;8963446;26;20579;-58
2024/04/11 04:40:43;;;;;;;;;;;20.50;39.80;;;;;;8963016;26;19929;-59
2024/04/11 04:44:45;;;;;;;;;;;20.50;39.70;;;;;;8963113;26;19941;-57
2024/04/11 04:48:46;;;;;;;;;;;20.50;39.60;;;;;;8931642;26;19929;-58
2024/04/11 04:52:48;;;;;;;;;;;20.50;40.00;;;;;;8962422;26;19933;-59
2024/04/11 04:56:50;;;;;;;;;;;20.40;41.20;;;;;;8962493;26;19929;-59
2024/04/11 05:00:50;;;;;;;;;;;20.30;41.40;;;;;;8962444;26;19937;-58
2024/04/11 05:04:51;;;;;;;;;;;20.40;40.80;;;;;;8962805;26;20335;-58
2024/04/11 05:08:54;;;;;;;;;;;20.50;40.40;;;;;;8931068;26;19936;-58
2024/04/11 05:12:59;;;;;;;;;;;20.50;40.20;;;;;;8961925;26;19960;-58
2024/04/11 05:16:59;;;;;;;;;;;20.50;40.00;;;;;;8962526;26;19955;-59
2024/04/11 05:21:01;;;;;;;;;;;20.50;39.80;;;;;;8961657;26;19953;-58
2024/04/11 05:25:02;;;;;;;;;;;20.50;39.70;;;;;;8961995;26;19936;-59
2024/04/11 05:29:04;;;;;;;;;;;20.50;39.60;;;;;;8962372;26;19929;-58
2024/04/11 05:33:05;;;;;;;;;;;20.50;39.60;;;;;;8961574;26;20453;-59
2024/04/11 05:37:05;;;;;;;;;;;20.50;39.50;;;;;;8960134;26;20669;-58
2024/04/11 05:41:09;;;;;;;;;;;20.50;40.20;;;;;;8930570;26;20010;-59
2024/04/11 05:45:16;;;;;;;;;;;20.30;41.30;;;;;;8961142;26;20423;-59
2024/04/11 05:49:17;;;;;;;;;;;20.30;41.20;;;;;;8961675;26;20347;-58
2024/04/11 05:53:19;;;;;;;;;;;20.40;40.70;;;;;;8961082;26;20294;-58
2024/04/11 05:57:19;;;;;;;;;;;20.40;40.30;;;;;;8961385;26;19929;-58
2024/04/11 06:01:20;;;;;;;;;;;20.50;40.00;;;;;;8930109;26;19937;-59
2024/04/11 06:05:21;;;;;;;;;;;20.50;39.80;;;;;;8961007;26;19929;-59
2024/04/11 06:09:22;;;;;;;;;;;20.50;39.70;;;;;;8961067;26;19929;-59
2024/04/11 06:13:24;;;;;;;;;;;20.50;39.60;;;;;;8960764;26;19929;-59
2024/04/11 06:17:27;;;;;;;;;;;20.50;39.50;;;;;;8960995;26;19936;-59
2024/04/11 06:21:36;;;;;;;;;;;20.50;39.50;;;;;;8960332;26;20275;-58
2024/04/11 06:25:37;;;;;;;;;;;20.50;39.40;;;;;;8960283;26;19936;-59
2024/04/11 06:29:37;;;;;;;;;;;20.40;40.30;;;;;;8929120;26;19961;-58
2024/04/11 06:33:40;;;;;;;;;;;20.20;41.40;;;;;;8960165;26;19929;-59
2024/04/11 06:37:44;;;;;;;;;;;20.30;41.20;;;;;;8959887;26;19929;-59
2024/04/11 06:41:44;;;;;;;;;;;20.30;40.60;;;;;;8928646;26;20026;-59
2024/04/11 06:45:45;;;;;;;;;;;20.40;40.30;;;;;;8959713;26;19933;-59
2024/04/11 06:49:47;;;;;;;;;;;20.50;40.10;;;;;;8962756;26;20326;-59
2024/04/11 06:53:48;;;;;;;;;;;20.50;39.80;;;;;;8965611;26;19935;-59
2024/04/11 06:57:49;;;;;;;;;;;20.50;39.60;;;;;;8965395;26;19929;-59
2024/04/11 07:01:51;;;;;;;;;;;20.50;39.50;;;;;;8934275;26;20302;-60
2024/04/11 07:05:56;;;;;;;;;;;20.50;39.50;;;;;;8965073;26;19929;-60
2024/04/11 07:09:58;;;;;;;;;;;20.50;39.40;;;;;;8965078;26;19944;-57
2024/04/11 07:14:00;;;;;;;;;;;20.50;39.30;;;;;;8964648;26;19929;-58
2024/04/11 07:18:01;;;;;;;;;;;20.50;40.30;;;;;;8965367;26;19936;-58
2024/04/11 07:22:08;;;;;;;;;;;20.30;41.30;;;;;;8964390;26;20368;-58
2024/04/11 07:26:12;;;;;;;;;;;20.30;40.90;;;;;;8965085;26;19941;-59
2024/04/11 07:30:12;;;;;;;;;;;20.40;40.40;;;;;;8964554;26;19941;-58
2024/04/11 07:34:14;;;;;;;;;;;20.50;40.10;;;;;;8964379;26;19937;-58
2024/04/11 07:38:15;;;;;;;;;;;20.50;39.90;;;;;;8964405;26;19997;-58
2024/04/11 07:42:18;;;;;;;;;;;20.50;39.70;;;;;;8964241;26;19929;-58
2024/04/11 07:46:19;;;;;;;;;;;20.50;39.50;;;;;;8963646;26;20374;-57
2024/04/11 07:50:23;;;;;;;;;;;20.60;39.50;;;;;;8964493;26;19929;-58
2024/04/11 07:54:23;;;;;;;;;;;20.60;39.40;;;;;;8964339;26;19937;-58
2024/04/11 07:58:24;;;;;;;;;;;20.60;39.30;;;;;;8963815;26;19929;-58
2024/04/11 08:02:26;;;;;;;;;;;20.50;39.30;;;;;;8963159;26;19940;-57
2024/04/11 08:06:27;;;;;;;;;;;20.40;40.60;;;;;;8964081;26;19929;-58
2024/04/11 08:10:28;;;;;;;;;;;20.20;41.30;;;;;;8963687;26;19929;-58
2024/04/11 08:14:29;;;;;;;;;;;20.30;40.70;;;;;;8963519;26;19929;-58
2024/04/11 08:18:29;;;;;;;;;;;20.40;40.30;;;;;;8963761;26;19929;-57
2024/04/11 08:22:32;;;;;;;;;;;20.40;40.00;;;;;;8963459;26;19939;-58
2024/04/11 08:26:33;;;;;;;;;;;20.50;39.80;;;;;;8963161;26;19928;-58
2024/04/11 08:30:35;;;;;;;;;;;20.50;39.70;;;;;;8963653;26;19929;-58
2024/04/11 08:34:38;;;;;;;;;;;20.50;39.50;;;;;;8962947;26;19995;-59
2024/04/11 08:38:40;;;;;;;;;;;20.50;39.40;;;;;;8932092;26;19997;-58
2024/04/11 08:42:42;;;;;;;;;;;20.50;39.30;;;;;;8932553;26;19933;-58
2024/04/11 08:46:43;;;;;;;;;;;20.50;39.30;;;;;;8931566;26;19962;-58
2024/04/11 08:50:44;;;;;;;;;;;20.50;39.20;;;;;;8963223;26;19998;-58
2024/04/11 08:54:45;;;;;;;;;;;20.40;40.80;;;;;;8963188;26;20339;-58
2024/04/11 08:58:46;;;;;;;;;;;20.20;41.20;;;;;;8963434;26;20002;-57
2024/04/11 09:02:48;;;;;;;;;;;20.30;40.60;;;;;;8963244;26;19936;-59
2024/04/11 09:06:53;;;;;;;;;;;20.50;40.20;;;;;;8962547;26;20378;-59
2024/04/11 09:10:58;;;;;;;;;;;20.50;40.00;;;;;;8962116;26;20027;-58
2024/04/11 09:14:58;;;;;;;;;;;20.50;39.70;;;;;;8962103;26;20453;-58
2024/04/11 09:19:03;;;;;;;;;;;20.50;39.60;;;;;;8962810;26;20002;-58
2024/04/11 09:23:03;;;;;;;;;;;20.50;39.50;;;;;;8962326;26;20017;-58
2024/04/11 09:27:05;;;;;;;;;;;20.50;39.40;;;;;;8962106;26;19938;-59
2024/04/11 09:31:09;;;;;;;;;;;20.50;39.40;;;;;;8962114;26;19929;-60
2024/04/11 09:35:12;;;;;;;;;;;20.50;39.30;;;;;;8961942;26;19929;-59
2024/04/11 09:39:41;;;;;;;;;;;20.50;39.50;;;;;;8962496;26;19978;-58
2024/04/11 09:43:45;;;;;;;;;;;20.30;40.90;;;;;;8961247;26;19929;-59
2024/04/11 09:47:47;;;;;;;;;;;20.20;41.20;;;;;;8961500;26;19937;-59
2024/04/11 09:51:49;;;;;;;;;;;20.30;40.50;;;;;;8961555;26;19936;-59
2024/04/11 09:55:50;;;;;;;;;;;20.40;40.10;;;;;;8961457;26;19940;-59
2024/04/11 09:59:55;;;;;;;;;;;20.40;39.90;;;;;;8930848;26;19929;-57
2024/04/11 10:04:00;;;;;;;;;;;20.40;39.70;;;;;;8961624;26;19976;-60
2024/04/11 10:08:01;;;;;;;;;;;20.50;39.60;;;;;;8961150;26;19929;-60
2024/04/11 10:12:05;;;;;;;;;;;20.50;39.40;;;;;;8960703;26;19936;-60
2024/04/11 10:16:14;;;;;;;;;;;20.50;39.40;;;;;;8960865;26;19936;-59
2024/04/11 10:20:14;;;;;;;;;;;20.50;39.30;;;;;;8960654;26;20310;-59
2024/04/11 10:24:23;;;;;;;;;;;20.50;39.20;;;;;;8960080;26;19936;-59
2024/04/11 10:28:37;;;;;;;;;;;20.50;39.90;;;;;;8960842;26;20359;-58
2024/04/11 10:32:46;;;;;;;;;;;20.20;41.00;;;;;;8928561;26;20372;-59
2024/04/11 10:36:56;;;;;;;;;;;20.20;41.00;;;;;;8959435;26;20338;-60
2024/04/11 10:40:58;;;;;;;;;;;20.30;40.40;;;;;;8960581;26;20358;-58
2024/04/11 10:44:59;;;;;;;;;;;20.30;40.00;;;;;;8959846;26;20277;-58
2024/04/11 10:49:15;;;;;;;;;;;20.40;39.80;;;;;;8960254;26;19936;-58
2024/04/11 10:53:20;;;;;;;;;;;20.40;39.60;;;;;;8959180;26;19937;-58
2024/04/11 10:57:22;;;;;;;;;;;20.50;39.60;;;;;;8959578;26;20391;-58
2024/04/11 11:01:26;;;;;;;;;;;20.50;39.50;;;;;;8959484;26;19929;-59
2024/04/11 11:05:27;;;;;;;;;;;20.50;39.40;;;;;;8958924;26;19936;-58
2024/04/11 11:09:27;;;;;;;;;;;20.50;39.20;;;;;;8959592;26;19929;-58
2024/04/11 11:13:34;;;;;;;;;;;20.50;39.20;;;;;;8959387;26;19929;-59
2024/04/11 11:17:39;;;;;;;;;;;20.40;40.40;;;;;;8958891;26;20016;-59
2024/04/11 11:21:42;;;;;;;;;;;20.20;41.30;;;;;;8958819;26;19961;-59
2024/04/11 11:25:43;;;;;;;;;;;20.20;40.70;;;;;;8958780;26;19936;-58
2024/04/11 11:29:48;;;;;;;;;;;20.30;40.30;;;;;;8958987;26;19936;-59
2024/04/11 11:33:51;;;;;;;;;;;20.40;40.00;;;;;;8958799;26;20270;-58
2024/04/11 11:37:54;;;;;;;;;;;20.40;39.80;;;;;;8964043;26;19965;-58
2024/04/11 11:42:08;;;;;;;;;;;20.40;39.60;;;;;;8965267;26;19937;-59
2024/04/11 11:46:26;;;;;;;;;;;20.40;39.50;;;;;;8964651;26;19936;-59
2024/04/11 11:50:35;;;;;;;;;;;20.50;39.50;;;;;;8964826;26;20005;-60
2024/04/11 11:54:41;;;;;;;;;;;20.50;39.40;;;;;;8965245;26;19932;-59
2024/04/11 11:58:43;;;;;;;;;;;20.50;39.30;;;;;;8965335;26;19936;-60
2024/04/11 12:02:45;;;;;;;;;;;20.50;39.50;;;;;;8964950;26;19929;-59
2024/04/11 12:06:48;;;;;;;;;;;20.20;40.90;;;;;;8964648;26;19929;-60
2024/04/11 12:15:02;;;;;;;;;;;20.20;40.60;;;;;;8964544;26;19957;-60
2024/04/11 12:19:03;;;;;;;;;;;20.30;40.20;;;;;;8963831;26;20492;-59
2024/04/11 12:23:06;;;;;;;;;;;20.30;39.90;;;;;;8963433;26;20415;-59
2024/04/11 12:27:07;;;;;;;;;;;20.40;39.80;;;;;;8963427;26;19933;-57
2024/04/11 12:31:07;;;;;;;;;;;20.40;39.60;;;;;;8963217;26;19932;-59
2024/04/11 12:35:08;;;;;;;;;;;20.40;39.50;;;;;;8963259;26;19937;-59
2024/04/11 12:39:21;;;;;;;;;;;20.40;39.40;;;;;;8963522;26;20401;-59
2024/04/11 12:43:22;;;;;;;;;;;20.40;39.40;;;;;;8962837;26;19929;-59
2024/04/11 12:47:48;;;;;;;;;;;20.50;39.30;;;;;;8931572;26;20363;-60
2024/04/11 12:51:48;;;;;;;;;;;20.40;39.80;;;;;;8962879;26;20001;-58
2024/04/11 12:55:52;;;;;;;;;;;20.20;41.00;;;;;;8931702;26;19965;-58
2024/04/11 12:59:56;;;;;;;;;;;20.20;41.00;;;;;;8932787;26;19945;-60
2024/04/11 13:03:56;;;;;;;;;;;20.20;40.40;;;;;;8962874;26;19933;-58
2024/04/11 13:07:59;;;;;;;;;;;20.30;40.10;;;;;;8962334;26;19958;-58
2024/04/11 13:12:04;;;;;;;;;;;20.40;39.90;;;;;;8962453;26;19929;-59
2024/04/11 13:16:09;;;;;;;;;;;20.40;39.70;;;;;;8962282;26;19988;-58
2024/04/11 13:20:14;;;;;;;;;;;20.40;39.60;;;;;;8962413;26;19980;-58
2024/04/11 13:24:20;;;;;;;;;;;20.40;39.40;;;;;;8931966;26;19929;-58
2024/04/11 13:28:28;;;;;;;;;;;20.40;39.40;;;;;;8961986;26;19940;-58
2024/04/11 13:32:30;;;;;;;;;;;20.40;39.30;;;;;;8961567;26;19932;-57
2024/04/11 13:36:32;;;;;;;;;;;20.40;39.30;;;;;;8961774;26;19929;-58
2024/04/11 13:44:35;;;;;;;;;;;20.20;41.10;;;;;;8961929;26;19933;-58
2024/04/11 13:48:48;;;;;;;;;;;20.10;40.80;;;;;;8961644;26;20337;-59
2024/04/11 13:52:50;;;;;;;;;;;20.20;40.30;;;;;;8961467;26;19929;-58
2024/04/11 13:57:33;;;;;;;;;;;20.30;40.00;;;;;;8961496;26;19940;-59
2024/04/11 14:01:23;;;;;;;;;;;20.40;39.80;;;;;;8950575;26;19960;-58
2024/04/11 14:05:45;;;;;;;;;;;20.40;39.70;;;;;;8960960;26;20643;-58
2024/04/11 14:09:46;;;;;;;;;;;20.40;39.60;;;;;;8960902;26;19936;-58
2024/04/11 14:13:48;;;;;;;;;;;20.40;39.40;;;;;;8895131;26;20006;-58
2024/04/11 14:17:54;;;;;;;;;;;20.50;39.40;;;;;;8871343;26;19984;-58
2024/04/11 14:22:08;;;;;;;;;;;20.40;39.40;;;;;;8871498;26;19977;-58
2024/04/11 14:26:08;;;;;;;;;;;20.40;39.40;;;;;;8902095;26;19999;-58
2024/04/11 14:30:09;;;;;;;;;;;20.20;40.70;;;;;;8901918;26;19930;-58
2024/04/11 14:38:10;;;;;;;;;;;20.20;40.70;;;;;;8901551;26;19929;-58
2024/04/11 14:42:22;;;;;;;;;;;20.20;40.30;;;;;;8871134;26;19930;-58
2024/04/11 14:46:24;;;;;;;;;;;20.30;40.10;;;;;;8901005;26;20368;-58
2024/04/11 14:50:24;;;;;;;;;;;20.30;39.80;;;;;;8901131;26;20436;-58
2024/04/11 14:54:26;;;;;;;;;;;20.30;39.60;;;;;;8901116;26;20268;-57
2024/04/11 14:58:37;;;;;;;;;;;20.40;39.60;;;;;;8901248;26;19929;-58
2024/04/11 15:02:38;;;;;;;;;;;20.40;39.50;;;;;;8958939;26;19929;-58
2024/04/11 15:06:43;;;;;;;;;;;20.40;39.40;;;;;;8959854;26;19929;-58
2024/04/11 15:10:44;;;;;;;;;;;20.40;39.30;;;;;;8931047;26;19957;-59
2024/04/11 15:14:44;;;;;;;;;;;20.40;39.80;;;;;;9016167;26;19943;-58
2024/04/11 15:18:45;;;;;;;;;;;20.20;40.90;;;;;;9024510;26;19955;-58
2024/04/11 15:22:46;;;;;;;;;;;20.10;41.00;;;;;;8992976;26;19928;-59
2024/04/11 15:26:54;;;;;;;;;;;20.20;40.50;;;;;;9024080;26;20062;-60
2024/04/11 15:34:57;;;;;;;;;;;20.30;39.90;;;;;;9024409;26;20501;-60
2024/04/11 15:39:01;;;;;;;;;;;20.30;39.70;;;;;;8992704;26;19935;-59
2024/04/11 15:43:04;;;;;;;;;;;20.30;39.60;;;;;;9024148;26;19978;-60
2024/04/11 15:47:05;;;;;;;;;;;20.40;39.50;;;;;;9023676;26;20378;-58
2024/04/11 15:51:06;;;;;;;;;;;20.40;39.40;;;;;;9023243;26;20323;-60
2024/04/11 15:55:12;;;;;;;;;;;20.30;39.30;;;;;;9023506;26;19932;-60
2024/04/11 15:59:17;;;;;;;;;;;20.30;39.20;;;;;;9023925;26;19929;-59
2024/04/11 16:03:20;;;;;;;;;;;20.30;40.00;;;;;;9023435;26;19936;-59
2024/04/11 16:07:26;;;;;;;;;;;20.10;40.90;;;;;;9023559;26;19932;-60
2024/04/11 16:11:27;;;;;;;;;;;20.10;40.90;;;;;;9022817;26;20415;-59
2024/04/11 16:15:30;;;;;;;;;;;20.20;40.40;;;;;;9022991;26;19971;-59
2024/04/11 16:19:32;;;;;;;;;;;20.20;40.10;;;;;;9023015;26;19937;-60
2024/04/11 16:23:34;;;;;;;;;;;20.30;39.80;;;;;;9022203;26;19928;-60
2024/04/11 16:27:35;;;;;;;;;;;20.30;40.20;;;;;;9022598;26;19936;-60
2024/04/11 16:31:38;;;;;;;;;;;20.30;39.50;;;;;;9007691;26;20006;-59
2024/04/11 16:35:39;;;;;;;;;;;20.30;39.50;;;;;;9008147;26;19933;-58
2024/04/11 16:39:47;;;;;;;;;;;20.30;39.30;;;;;;8990736;26;19945;-58
2024/04/11 16:43:53;;;;;;;;;;;20.40;39.30;;;;;;9022224;26;19997;-58
2024/04/11 16:47:58;;;;;;;;;;;20.40;39.20;;;;;;9022332;26;19937;-58
2024/04/11 16:51:59;;;;;;;;;;;20.20;40.20;;;;;;9023155;26;19936;-59
2024/04/11 16:56:04;;;;;;;;;;;20.10;41.10;;;;;;9022083;26;19929;-58
2024/04/11 17:00:15;;;;;;;;;;;20.10;40.80;;;;;;9022096;26;19929;-58
2024/04/11 17:04:17;;;;;;;;;;;20.20;40.30;;;;;;9021796;26;20288;-59
2024/04/11 17:08:17;;;;;;;;;;;20.20;40.00;;;;;;9021769;26;19928;-58
2024/04/11 17:12:22;;;;;;;;;;;20.20;39.80;;;;;;9021205;26;19936;-57
2024/04/11 17:20:48;;;;;;;;;;;20.30;39.50;;;;;;9021248;26;19935;-58
2024/04/11 17:24:51;;;;;;;;;;;20.30;39.40;;;;;;9020958;26;19935;-58
2024/04/11 17:28:53;;;;;;;;;;;20.30;39.30;;;;;;9021224;26;19997;-58
2024/04/11 17:32:59;;;;;;;;;;;20.40;39.30;;;;;;9021514;26;19936;-58
2024/04/11 17:37:00;;;;;;;;;;;20.40;39.20;;;;;;9021528;26;19928;-59
2024/04/11 17:41:25;;;;;;;;;;;20.20;40.40;;;;;;8989987;26;19964;-58
2024/04/11 17:45:28;;;;;;;;;;;20.10;41.10;;;;;;9082003;26;19928;-58
2024/04/11 17:49:38;;;;;;;;;;;20.10;40.50;;;;;;9066868;26;19993;-58
2024/04/11 17:53:39;;;;;;;;;;;20.20;41.50;;;;;;9021220;26;20275;-58
2024/04/11 17:57:41;;;;;;;;;;;20.20;42.00;;;;;;9020796;26;19932;-60
2024/04/11 18:01:42;;;;;;;;;;;20.20;41.80;;;;;;8989122;26;19957;-63
2024/04/11 18:05:47;;;;;;;;;;;20.10;41.70;;;;;;9020738;26;19968;-58
2024/04/11 18:09:53;;;;;;;;;;;20.20;42.10;;;;;;9020900;26;19928;-59
2024/04/11 18:13:53;;;;;;;;;;;20.10;42.20;;;;;;9020851;26;20001;-58
2024/04/11 18:17:57;;;;;;;;;;;20.20;42.40;;;;;;9020083;26;19937;-63
2024/04/11 18:21:58;;;;;;;;;;;20.20;42.50;;;;;;9020253;26;20007;-64
2024/04/11 18:25:58;;;;;;;;;;;20.20;42.50;;;;;;9019859;26;19928;-59
2024/04/11 18:30:00;;;;;;;;;;;20.20;42.40;;;;;;9020243;26;19939;-60
2024/04/11 18:34:05;;;;;;;;;;;20.20;42.50;;;;;;8988382;26;19996;-64
2024/04/11 18:38:06;;;;;;;;;;;20.20;42.60;;;;;;9020417;26;19932;-61
2024/04/11 18:42:21;;;;;;;;;;;20.20;43.00;;;;;;9019926;26;20000;-61
2024/04/11 18:46:25;;;;;;;;;;;20.20;42.80;;;;;;9018577;26;19932;-62
2024/04/11 18:50:33;;;;;;;;;;;20.30;42.90;;;;;;9019315;26;19956;-65
2024/04/11 18:54:34;;;;;;;;;;;20.20;42.80;;;;;;9019925;26;19929;-57
2024/04/11 18:58:39;;;;;;;;;;;20.30;42.80;;;;;;9019120;26;19928;-60
2024/04/11 19:02:40;;;;;;;;;;;20.30;43.00;;;;;;9019262;26;19928;-60
2024/04/11 19:06:41;;;;;;;;;;;20.30;42.90;;;;;;9018676;26;19928;-58
2024/04/11 19:11:20;;;;;;;;;;;20.30;43.00;;;;;;9018498;26;19940;-61
2024/04/11 19:15:18;;;;;;;;;;;20.30;43.10;;;;;;9017782;26;19935;-56
2024/04/11 19:19:21;;;;;;;;;;;20.30;43.00;;;;;;9018494;26;19929;-58
2024/04/11 19:23:35;;;;;;;;;;;20.30;43.00;;;;;;8987311;26;19997;-56
2024/04/11 19:27:37;;;;;;;;;;;20.40;43.30;;;;;;9018314;26;19982;-58
2024/04/11 19:31:42;;;;;;;;;;;20.30;42.90;;;;;;8956654;26;19933;-59
2024/04/11 19:35:49;;;;;;;;;;;20.40;42.90;;;;;;9018269;26;19960;-58
2024/04/11 19:39:56;;;;;;;;;;;20.40;42.80;;;;;;9017984;26;19939;-57
2024/04/11 19:43:59;;;;;;;;;;;20.40;42.90;;;;;;9017772;26;19940;-63
2024/04/11 19:48:06;;;;;;;;;;;20.30;43.10;;;;;;9018139;26;19940;-59
2024/04/11 19:52:09;;;;;;;;;;;20.30;42.90;;;;;;9016862;26;20359;-59
2024/04/11 19:56:18;;;;;;;;;;;20.30;43.40;;;;;;9018267;26;20368;-61
2024/04/11 20:04:41;;;;;;;;;;;20.30;43.10;;;;;;9023342;26;20369;-60
2024/04/11 20:08:48;;;;;;;;;;;20.30;43.10;;;;;;9023767;26;19939;-58
2024/04/11 20:12:54;;;;;;;;;;;20.30;43.20;;;;;;9023082;26;19936;-61
2024/04/11 20:17:00;;;;;;;;;;;20.30;43.20;;;;;;9023371;26;19940;-59
2024/04/11 20:21:00;;;;;;;;;;;20.30;43.30;;;;;;9023524;26;19944;-58
2024/04/11 20:25:13;;;;;;;;;;;20.40;43.30;;;;;;9022965;26;19936;-56
2024/04/11 20:29:20;;;;;;;;;;;20.30;43.40;;;;;;9023288;26;19997;-58
2024/04/11 20:33:22;;;;;;;;;;;20.40;43.50;;;;;;8988254;26;20382;-61
2024/04/11 20:37:23;;;;;;;;;;;20.30;43.10;;;;;;9026896;26;19932;-59
2024/04/11 20:41:23;;;;;;;;;;;20.40;43.30;;;;;;9027005;26;19929;-59
2024/04/11 20:45:30;;;;;;;;;;;20.40;43.10;;;;;;8994672;26;19928;-61
2024/04/11 21:36:58;;;;;;;;;;;20.60;44.70;;;;;;9026213;26;20271;-58
2024/04/11 21:45:21;;;;;;;;;;;20.60;44.40;;;;;;8966438;26;20365;-60
2024/04/11 21:49:24;;;;;;;;;;;20.60;44.40;;;;;;9019494;26;20312;-60
2024/04/11 21:53:33;;;;;;;;;;;20.50;44.60;;;;;;9032458;26;19932;-60
2024/04/11 21:57:33;;;;;;;;;;;20.50;45.30;;;;;;9032794;26;19928;-60
2024/04/11 22:01:43;;;;;;;;;;;20.50;44.80;;;;;;9024544;26;19940;-60
2024/04/11 22:05:48;;;;;;;;;;;20.50;44.90;;;;;;9024635;26;19932;-61
2024/04/11 22:09:49;;;;;;;;;;;20.50;44.90;;;;;;9025403;26;20273;-60
2024/04/11 22:13:53;;;;;;;;;;;20.40;44.80;;;;;;9024701;26;19932;-58
2024/04/11 22:17:55;;;;;;;;;;;20.40;45.00;;;;;;9024586;26;19997;-60
2024/04/11 22:21:56;;;;;;;;;;;20.40;44.80;;;;;;9031561;26;19935;-60
2024/04/11 22:25:58;;;;;;;;;;;20.40;44.90;;;;;;9024546;26;19997;-60
2024/04/11 22:30:05;;;;;;;;;;;20.40;44.80;;;;;;9024047;26;19936;-60
2024/04/11 22:34:14;;;;;;;;;;;20.40;44.70;;;;;;9046509;26;19935;-60
2024/04/11 22:38:18;;;;;;;;;;;20.40;44.30;;;;;;9078494;26;20273;-59
2024/04/11 22:42:19;;;;;;;;;;;20.40;44.10;;;;;;9063284;26;20377;-58
2024/04/11 22:46:30;;;;;;;;;;;20.40;44.20;;;;;;9018316;26;19932;-60
2024/04/11 22:50:39;;;;;;;;;;;20.40;44.00;;;;;;9018988;26;19935;-58
2024/04/11 22:54:40;;;;;;;;;;;20.30;44.40;;;;;;8987100;26;19939;-58
2024/04/11 22:58:47;;;;;;;;;;;20.30;44.30;;;;;;9019545;26;19956;-57
2024/04/11 23:02:51;;;;;;;;;;;20.40;44.90;;;;;;9019212;26;20362;-62
2024/04/11 23:06:55;;;;;;;;;;;20.40;44.10;;;;;;9019256;26;19928;-59
2024/04/11 23:10:57;;;;;;;;;;;20.40;44.10;;;;;;9019497;26;19935;-61
2024/04/11 23:15:10;;;;;;;;;;;20.40;44.10;;;;;;9019106;26;19929;-59
2024/04/11 23:19:16;;;;;;;;;;;20.40;44.40;;;;;;8987220;26;19929;-59
2024/04/11 23:23:16;;;;;;;;;;;20.30;44.40;;;;;;9051952;26;19936;-60
2024/04/11 23:27:17;;;;;;;;;;;20.30;44.60;;;;;;9079197;26;19936;-57
2024/04/11 23:31:19;;;;;;;;;;;20.30;44.40;;;;;;9081046;26;20368;-58
2024/04/11 23:35:20;;;;;;;;;;;20.30;44.20;;;;;;9084767;26;19995;-58
2024/04/11 23:39:32;;;;;;;;;;;20.20;44.30;;;;;;9084759;26;19960;-59
2024/04/11 23:43:45;;;;;;;;;;;20.20;44.30;;;;;;9051444;26;19955;-59
2024/04/11 23:47:52;;;;;;;;;;;20.20;44.30;;;;;;9024138;26;20358;-57
2024/04/11 23:52:05;;;;;;;;;;;20.20;44.90;;;;;;9024043;26;20007;-58
